Gale Warning
Issued at: 08:00 AM TODAY , 19 March 2019
Gale Warning # 4 (Intermediate)
For: STRONG TO GALE FORCE WINDS ASSOCIATED WITH Low pressure area (formerly td "chedeng ").

Gale Warning in PDF file



Weather Advisory
Issued at: 11:00 AM 2019 March 19
Weather Advisory in PDF file




General Flood Advisories - Regional
 General Flood Advisory issued as of 7 PM, 20 August 2018



Advisories


Monthly Climate Assessment and Outlook (July-August 2018)

Issued: 06 August 2018

Monthly Rainfall Forecast
RAINFALL FORECAST  (September 2018 - February 2019) 
UPDATED: 29 August 2018 (next update September 26, 2018)


Regional Rainfall Forecast
Issued: 29 August 2018
Valid for: September 2018 - February 2019
Farm Weather Forecast and Advisories
ISSUED: 8 AM,  TUESDAY, JANUARY  29, 2019
VALID UNTIL: 8 AM,  WEDNESDAY, JANUARY 30
, 2019
FWFA:  N0. 19-029

Ten-Day Regional Agri-Weather Information
DEKAD NO. 2   JANUARY 11 - 20, 2019
PHILIPPINE AGRI-WEATHER FORECAST
The weather systems that will affect the whole country are the northeast monsoon, tail-end of a cold front, low pressure area (LPA) and easterlies.

Seasonal Climate Outlook
Issued:  13 July 2018
FOR July - December 2018
PDF 




Astronomical Diary
Issue for October 2018
The October Orionids meteor shower will be active from October 17-25, 2017.




   PAGASA webmail  Learning Tools  Bidding 

  Training Activities  Vacancy  Research-and-Development

  Engineering  faqupdate  Publications 
 
TAF RPLL

182300Z 1900/2006 11010KT 9999 FEW025 TX33/1906Z TN26/1921Z TEMPO 1904/1910 11018KT SCT025 BKN300 TEMPO 1910/1912 10015KT=

TAF RPVM

182300Z 1900/2006 06010KT 9999 FEW020 OVC100 TEMPO 1900/1906 05016KT 8000 -SHRA SCT020 OVC090 TEMPO 1906/1912 9000 -SHRA SCT020 BKN090=

TAF RPLC

182300Z 1900/2006 09006KT 9999 FEW020 BKN300 TX34/1906Z TN23/1922Z TEMPO 1900/1906 28008KT SCT020 BKN300=

TAF RPLB

182300Z 1900/1924 06008KT 9999 FEW020 SCT300 TX33/1906Z TN24/1922Z TEMPO 1900/1906 10012KT SCT020 BKN300=

TAF RPLI

182300Z 1900/1924 32006KT 9999 FEW018 SCT290 TEMPO 1900/1902 VRB03KT TEMPO 1903/1909 33012KT=

TAF RPVP

182300Z 1900/1924 09008KT 9999 FEW019 BKN250 TEMPO 1902/1904 09014KT FEW019=

TAF RPVD

182300Z 1900/1924 02008KT 9000 -RA SCT015 BKN070 TEMPO 1900/1906 02015KT 7000 SHRA FEW014CB SCT015 OVC070=

TAF RPMR

182300Z 1900/1924 02007KT 9000 -RA SCT018 BKN080 OVC250 TEMPO 1900/1906 04013KT 7000 SHRA FEW017CB SCT018 OVC080=

TAF RPMD

182300Z 1900/1924 34007KT 9000 -RA FEW016 OVC090 TEMPO 1900/1906 01012KT 7000 RA SCT016 OVC080=

TAF RPMZ

182300Z 1900/1924 06007KT 9000 -RA SCT017 OVC090 TEMPO 1900/1906 08012KT 7000 SHRA SCT017 OVC090=


   
RPLL FORECAST TAKE-OFF CONDITION
TIME

(UTC)

WIND

(dddffKT)

TEMP

(°C)

QNH

(hPa)

TIME

(UTC)

WIND

(dddffKT)

TEMP

(°C)

QNH

(hPa)

0000

08005KT

27.5

1014.5

0400

11011KT

32.5

1013.5

0100

09006KT

28.5

1014.5

0500

12012KT

32.5

1012.5

0200

10007KT

30.0

1014.5

0600

12013KT

33.0

1012.0

0300

11008KT

31.5

1014.0

0700

12013KT

32.0

1011.5

ISSUED AT NAIA AMSS-WD/PAGASA-DOST FOR 2300UTC 18 MARCH 2019

PREPARED BY:   MPT                                              CHECKED BY:   AYN


PUBLIC WARNING 


It has come to the attention of the Office of the Administrator of PAGASA that a certain person has been using the name of Dr. Vicente B. Malano to solicit money from the contractors of PAGASA.

Dr. Malano wishes to inform the public that he has not authorized anyone to solicit money on his behalf and to warn everyone against dealing with unscrupulous activities of certain individuals.





payong pagasa on android The latest version of the official PAGASA app can now be downloaded on Google play store

Announcement of Training
Meteorological Technicians Training Course (MTTC)
The Philippine Atmospheric, Geophysical and Astronomical Services Administration (PAGASA) is conducting a Meteorological Technicians Training Course (MTTC), which will commence on 06 May 2019.

Read more ...
WEATHER OUTLOOK FOR NEW YEAR 2019

On December 31, Tropical Depression “USMAN” will be outside the Philippine Area of Responsibility (PAR)...

Read more ...